This is the latest recevied weather packets stored in our database for station/object IW4DZV-13. If no packets are shown the sender has not sent any weather packets the latest 10 day(s).
| Time | Temp. | Humidity | Pressure | Rain* | Wind** | Luminosity | Snow |
|---|---|---|---|---|---|---|---|
| 1777529709 | 12.22° C | 70% | 1022.7 hPa | 0.51 mm | - | 202 W/m² | - |
| 1777528803 | 12.78° C | 70% | 1022.6 hPa | 0.51 mm | - | 148 W/m² | - |
| 1777527961 | 12.22° C | 73% | 1022.4 hPa | 0.51 mm | - | 193 W/m² | - |
| 1777527069 | 11.11° C | 76% | 1022.3 hPa | 0.51 mm | - | 151 W/m² | - |
| 1777526154 | 10° C | 78% | 1022.1 hPa | 0.51 mm | - | 86 W/m² | - |
| 1777525251 | 10° C | 79% | 1021.9 hPa | 0.51 mm | - | 39 W/m² | - |
| 1777524350 | 10° C | 80% | 1021.8 hPa | 0.51 mm | - | 18 W/m² | - |
| 1777523448 | 10° C | 80% | 1021.7 hPa | 0.51 mm | - | 12 W/m² | - |
| 1777522544 | 10° C | 80% | 1021.5 hPa | 0.51 mm | - | 7 W/m² | - |
| 1777521658 | 10° C | 79% | 1021.6 hPa | 0.51 mm | - | 0 W/m² | - |
| 1777520743 | 10° C | 79% | 1021.3 hPa | 0.51 mm | - | 0 W/m² | - |
| 1777519840 | 10° C | 79% | 1021 hPa | 0.51 mm | - | 0 W/m² | - |
| 1777518936 | 10.56° C | 79% | 1020.9 hPa | 0.51 mm | - | 0 W/m² | - |
| 1777518044 | 10.56° C | 78% | 1020.8 hPa | 0.51 mm | - | 0 W/m² | - |
| 1777517133 | 10.56° C | 80% | 1020.7 hPa | 0.51 mm | - | 0 W/m² | - |
| 1777516248 | 11.11° C | 81% | 1020.7 hPa | 0.51 mm | - | 0 W/m² | - |
| 1777515329 | 11.11° C | 80% | 1020.7 hPa | 0.51 mm | - | 0 W/m² | - |
| 1777514427 | 11.67° C | 80% | 1020.6 hPa | 0.51 mm | - | 0 W/m² | - |
| 1777513525 | 11.67° C | 80% | 1020.6 hPa | 0.51 mm | - | 0 W/m² | - |
| 1777512629 | 11.67° C | 83% | 1020.6 hPa | 0.51 mm | - | 0 W/m² | - |
| 1777511723 | 12.22° C | 84% | 1020.5 hPa | 0.51 mm | - | 0 W/m² | - |
| 1777510823 | 12.22° C | 84% | 1020.5 hPa | 0.51 mm | - | 0 W/m² | - |
| 1777509919 | 12.22° C | 83% | 1020.4 hPa | 0.25 mm | - | 0 W/m² | - |
| 1777509035 | 12.78° C | 81% | 1020.2 hPa | 0.25 mm | - | 0 W/m² | - |
| 1777508115 | 12.78° C | 79% | 1020.1 hPa | 0 mm | - | 0 W/m² | - |
* Rain since midnight (hover to see other rain measurements)
** Current wind speed in m/s (hover to see current wind gust speed)